createdAt,value
2019-05-20T00:00:31.506Z,16.22
2019-05-20T00:03:05.108Z,16.23
2019-05-20T00:05:37.516Z,16.25
2019-05-20T00:08:09.852Z,16.27
2019-05-20T00:10:41.404Z,16.29
2019-05-20T00:13:16.624Z,16.24
2019-05-20T00:15:48.879Z,16.24
2019-05-20T00:18:23.564Z,16.24
2019-05-20T00:20:57.058Z,16.24
2019-05-20T00:23:30.074Z,16.23
2019-05-20T00:26:04.014Z,16.25
2019-05-20T00:28:37.915Z,16.25
2019-05-20T00:31:14.717Z,16.26
2019-05-20T00:33:46.351Z,16.28
2019-05-20T00:36:20.984Z,16.28
2019-05-20T00:39:10.896Z,16.29
2019-05-20T00:41:44.536Z,16.30
2019-05-20T00:44:19.243Z,16.30
2019-05-20T00:46:51.123Z,16.28
2019-05-20T00:49:23.903Z,16.24
2019-05-20T00:51:55.556Z,16.22
2019-05-20T00:54:28.854Z,16.21
2019-05-20T00:57:00.536Z,16.23
2019-05-20T00:59:33.164Z,16.20
2019-05-20T01:02:09.158Z,16.19
2019-05-20T01:04:40.854Z,16.16
2019-05-20T01:07:14.220Z,16.14
2019-05-20T01:09:46.079Z,16.10
2019-05-20T01:12:20.179Z,16.08
2019-05-20T01:14:51.779Z,16.05
2019-05-20T01:17:25.354Z,16.04
2019-05-20T01:19:56.870Z,16.02
2019-05-20T01:22:29.619Z,15.96
2019-05-20T01:25:02.194Z,15.95
2019-05-20T01:27:34.441Z,15.86
2019-05-20T01:30:07.751Z,15.86
2019-05-20T01:32:41.101Z,15.85
2019-05-20T01:35:15.172Z,15.84
2019-05-20T01:37:47.134Z,15.85
2019-05-20T01:40:20.702Z,15.83
2019-05-20T01:42:54.011Z,15.83
2019-05-20T01:45:26.012Z,15.78
2019-05-20T01:47:58.043Z,15.79
2019-05-20T01:50:30.777Z,15.73
2019-05-20T01:53:03.119Z,15.73
2019-05-20T01:55:35.031Z,15.74
2019-05-20T01:58:08.290Z,15.67
2019-05-20T02:00:42.281Z,15.70
2019-05-20T02:03:30.369Z,15.70
2019-05-20T02:05:50.133Z,15.69
2019-05-20T02:08:23.229Z,15.63
2019-05-20T02:10:56.707Z,15.63
2019-05-20T02:13:47.262Z,15.65
2019-05-20T02:16:23.617Z,15.61
2019-05-20T02:18:55.919Z,15.62
2019-05-20T02:21:30.838Z,15.58
2019-05-20T02:24:02.459Z,15.59
2019-05-20T02:26:34.990Z,15.61
2019-05-20T02:29:08.274Z,15.58
2019-05-20T02:31:40.429Z,15.60
2019-05-20T02:34:12.660Z,15.62
2019-05-20T02:36:45.261Z,15.63
2019-05-20T02:39:19.398Z,15.64
2019-05-20T02:41:51.426Z,15.59
2019-05-20T02:44:24.014Z,15.63
2019-05-20T02:46:55.995Z,15.62
2019-05-20T02:49:27.773Z,15.60
2019-05-20T02:51:59.419Z,15.57
2019-05-20T02:54:32.704Z,15.54
2019-05-20T02:57:04.270Z,15.54
2019-05-20T02:59:35.928Z,15.55
2019-05-20T03:02:09.043Z,15.55
2019-05-20T03:04:42.944Z,15.54
2019-05-20T03:07:16.571Z,15.50
2019-05-20T03:09:49.240Z,15.49
2019-05-20T03:12:25.044Z,15.47
2019-05-20T03:14:59.480Z,15.45
2019-05-20T03:17:33.246Z,15.46
2019-05-20T03:20:06.077Z,15.44
2019-05-20T03:22:38.049Z,15.37
2019-05-20T03:25:09.875Z,15.38
2019-05-20T03:27:42.402Z,15.34
2019-05-20T03:30:15.846Z,15.30
2019-05-20T03:32:50.323Z,15.35
2019-05-20T03:35:21.880Z,15.37
2019-05-20T03:37:54.930Z,15.32
2019-05-20T03:40:27.149Z,15.37
2019-05-20T03:43:00.973Z,15.40
2019-05-20T03:45:34.638Z,15.42
2019-05-20T03:48:08.259Z,15.39
2019-05-20T03:50:40.528Z,15.44
2019-05-20T03:53:12.876Z,15.48
2019-05-20T03:55:46.290Z,15.52
2019-05-20T03:58:19.977Z,15.57
2019-05-20T04:00:55.140Z,15.58
2019-05-20T04:03:28.555Z,15.65
2019-05-20T04:06:02.987Z,15.63
2019-05-20T04:08:35.102Z,15.63
2019-05-20T04:11:07.088Z,15.56
2019-05-20T04:13:39.208Z,15.57
2019-05-20T04:16:10.889Z,15.55
2019-05-20T04:18:44.169Z,15.53
2019-05-20T04:21:15.836Z,15.56
2019-05-20T04:23:47.442Z,15.60
2019-05-20T04:26:22.923Z,15.64
2019-05-20T04:28:54.738Z,15.64
2019-05-20T04:31:28.010Z,15.67
2019-05-20T04:33:59.764Z,15.72
2019-05-20T04:36:32.014Z,15.78
2019-05-20T04:39:05.602Z,15.81
2019-05-20T04:41:37.586Z,15.83
2019-05-20T04:44:10.167Z,15.81
2019-05-20T04:46:44.131Z,15.91
2019-05-20T04:49:17.164Z,15.93
2019-05-20T04:51:50.442Z,15.95
2019-05-20T04:54:25.260Z,16.00
2019-05-20T04:56:59.683Z,16.06
2019-05-20T04:59:33.706Z,16.17
2019-05-20T05:02:06.904Z,16.22
2019-05-20T05:04:39.801Z,16.34
2019-05-20T05:07:13.045Z,16.45
2019-05-20T05:09:46.459Z,16.51
2019-05-20T05:12:19.243Z,16.49
2019-05-20T05:14:52.615Z,16.62
2019-05-20T05:17:27.005Z,16.76
2019-05-20T05:19:59.098Z,16.85
2019-05-20T05:22:31.814Z,16.89
2019-05-20T05:25:04.976Z,16.83
2019-05-20T05:27:37.987Z,16.91
2019-05-20T05:30:09.991Z,17.00
2019-05-20T05:32:45.007Z,17.07
2019-05-20T05:35:18.284Z,17.04
2019-05-20T05:37:50.789Z,16.94
2019-05-20T05:40:26.019Z,16.96
2019-05-20T05:43:00.510Z,16.95
2019-05-20T05:45:33.895Z,16.99
2019-05-20T05:48:06.033Z,16.97
2019-05-20T05:50:38.966Z,16.99
2019-05-20T05:53:13.426Z,17.07
2019-05-20T05:55:45.385Z,17.16
2019-05-20T05:58:17.071Z,17.05
2019-05-20T06:00:49.916Z,17.20
2019-05-20T06:03:22.617Z,17.13
2019-05-20T06:06:10.601Z,17.26
2019-05-20T06:08:31.652Z,17.27
2019-05-20T06:11:03.833Z,17.40
2019-05-20T06:13:36.934Z,17.49
2019-05-20T06:16:08.516Z,17.66
2019-05-20T06:18:40.262Z,17.78
2019-05-20T06:21:12.231Z,17.88
2019-05-20T06:23:46.323Z,17.95
2019-05-20T06:26:18.997Z,18.15
2019-05-20T06:28:51.331Z,18.31
2019-05-20T06:31:23.099Z,18.39
2019-05-20T06:33:57.541Z,18.39
2019-05-20T06:36:29.110Z,18.50
2019-05-20T06:39:14.485Z,18.64
2019-05-20T06:41:48.006Z,18.61
2019-05-20T06:44:20.725Z,18.73
2019-05-20T06:46:54.240Z,18.88
2019-05-20T06:49:27.738Z,19.02
2019-05-20T06:52:00.593Z,19.06
2019-05-20T06:54:33.069Z,19.18
2019-05-20T06:57:07.669Z,19.26
2019-05-20T06:59:40.556Z,19.39
2019-05-20T07:02:14.784Z,19.49
2019-05-20T07:04:47.492Z,19.60
2019-05-20T07:07:21.429Z,19.72
2019-05-20T07:09:54.971Z,19.85
2019-05-20T07:12:40.122Z,20.07
2019-05-20T07:15:02.109Z,20.23
2019-05-20T07:17:39.033Z,20.30
2019-05-20T07:20:11.792Z,20.38
2019-05-20T07:22:55.593Z,20.50
2019-05-20T07:25:19.052Z,20.63
2019-05-20T07:27:52.877Z,20.72
2019-05-20T07:30:27.492Z,20.79
2019-05-20T07:32:59.427Z,20.92
2019-05-20T07:35:32.421Z,20.97
2019-05-20T07:38:04.159Z,21.06
2019-05-20T07:40:37.877Z,21.13
2019-05-20T07:43:09.782Z,21.37
2019-05-20T07:45:44.161Z,21.37
2019-05-20T07:48:16.765Z,21.59
2019-05-20T07:50:50.420Z,21.74
2019-05-20T07:53:27.279Z,21.86
2019-05-20T07:56:06.021Z,22.08
2019-05-20T07:58:41.890Z,22.10
2019-05-20T08:01:14.178Z,22.14
2019-05-20T08:03:46.839Z,22.24
2019-05-20T08:06:23.969Z,22.31
2019-05-20T08:09:01.836Z,22.15
2019-05-20T08:11:35.171Z,22.17
2019-05-20T08:14:07.952Z,22.25
2019-05-20T08:16:40.157Z,22.25
2019-05-20T08:19:13.469Z,22.40
2019-05-20T08:21:48.487Z,22.55
2019-05-20T08:24:23.210Z,22.62
2019-05-20T08:26:55.744Z,22.72
2019-05-20T08:29:29.619Z,22.76
2019-05-20T08:32:03.814Z,22.76
2019-05-20T08:34:35.732Z,22.83
2019-05-20T08:37:10.580Z,22.85
2019-05-20T08:39:44.408Z,22.84
2019-05-20T08:42:16.134Z,22.96
2019-05-20T08:44:48.719Z,22.85
2019-05-20T08:47:20.624Z,22.97
2019-05-20T08:49:52.505Z,23.10
2019-05-20T08:52:24.204Z,23.17
2019-05-20T08:54:58.254Z,23.38
2019-05-20T08:57:33.138Z,23.48
2019-05-20T09:00:09.260Z,23.46
2019-05-20T09:02:41.296Z,23.50
2019-05-20T09:05:14.650Z,23.48
2019-05-20T09:08:01.495Z,23.44
2019-05-20T09:10:24.502Z,23.31
2019-05-20T09:13:00.674Z,23.30
2019-05-20T09:15:33.321Z,22.89
2019-05-20T09:18:07.355Z,22.96
2019-05-20T09:20:39.469Z,22.94
2019-05-20T09:23:14.372Z,22.59
2019-05-20T09:25:47.966Z,22.60
2019-05-20T09:28:20.838Z,22.49
2019-05-20T09:30:56.129Z,22.53
2019-05-20T09:33:30.717Z,22.30
2019-05-20T09:36:05.250Z,22.25
2019-05-20T09:38:37.539Z,21.84
2019-05-20T09:41:10.914Z,21.81
2019-05-20T09:43:42.968Z,21.83
2019-05-20T09:46:14.510Z,21.86
2019-05-20T09:48:47.507Z,21.73
2019-05-20T09:51:20.578Z,21.63
2019-05-20T09:53:52.630Z,21.52
2019-05-20T09:56:24.671Z,21.67
2019-05-20T09:58:57.514Z,21.61
2019-05-20T10:01:31.901Z,21.55
2019-05-20T10:04:04.770Z,21.41
2019-05-20T10:06:37.264Z,21.68
2019-05-20T10:09:11.573Z,21.68
2019-05-20T10:11:46.335Z,21.73
2019-05-20T10:14:18.487Z,21.71
2019-05-20T10:16:52.531Z,21.78
2019-05-20T10:19:25.239Z,21.48
2019-05-20T10:21:57.468Z,21.63
2019-05-20T10:24:29.232Z,21.80
2019-05-20T10:27:02.349Z,21.98
2019-05-20T10:29:38.088Z,21.99
2019-05-20T10:32:12.280Z,21.94
2019-05-20T10:34:43.823Z,21.94
2019-05-20T10:37:16.439Z,21.97
2019-05-20T10:39:48.589Z,21.94
2019-05-20T10:42:23.970Z,21.89
2019-05-20T10:44:56.567Z,22.21
2019-05-20T10:47:29.382Z,22.51
2019-05-20T10:50:01.220Z,22.74
2019-05-20T10:52:36.516Z,22.89
2019-05-20T10:55:08.825Z,22.70
2019-05-20T10:57:40.795Z,23.09
2019-05-20T11:00:17.488Z,23.30
2019-05-20T11:02:50.371Z,23.45
2019-05-20T11:05:25.191Z,23.38
2019-05-20T11:07:57.023Z,23.58
2019-05-20T11:10:28.671Z,23.56
2019-05-20T11:13:04.224Z,23.44
2019-05-20T11:15:38.020Z,23.40
2019-05-20T11:18:09.558Z,23.51
2019-05-20T11:20:41.555Z,23.61
2019-05-20T11:23:14.270Z,23.61
2019-05-20T11:25:47.566Z,23.71
2019-05-20T11:28:21.965Z,23.74
2019-05-20T11:30:54.518Z,23.99
2019-05-20T11:33:29.038Z,24.08
2019-05-20T11:36:00.827Z,24.20
2019-05-20T11:38:34.552Z,24.26
2019-05-20T11:41:07.012Z,24.38
2019-05-20T11:43:40.701Z,24.38
2019-05-20T11:46:13.311Z,24.36
2019-05-20T11:48:47.474Z,24.39
2019-05-20T11:51:20.885Z,24.24
2019-05-20T11:53:54.426Z,23.98
2019-05-20T11:56:26.051Z,23.93
2019-05-20T11:58:59.804Z,23.62
2019-05-20T12:01:32.439Z,23.53
2019-05-20T12:04:04.948Z,23.46
2019-05-20T12:06:36.995Z,23.17
2019-05-20T12:09:10.861Z,23.27
2019-05-20T12:11:43.892Z,23.63
2019-05-20T12:14:16.364Z,23.93
2019-05-20T12:16:49.799Z,24.46
2019-05-20T12:19:21.413Z,25.22
2019-05-20T12:21:53.015Z,25.32
2019-05-20T12:24:27.089Z,25.63
2019-05-20T12:26:58.950Z,25.36
2019-05-20T12:29:31.850Z,25.41
2019-05-20T12:32:05.327Z,25.23
2019-05-20T12:34:38.789Z,25.53
2019-05-20T12:37:12.664Z,25.68
2019-05-20T12:39:45.771Z,25.32
2019-05-20T12:42:20.346Z,25.38
2019-05-20T12:44:53.046Z,25.49
2019-05-20T12:47:26.450Z,26.22
2019-05-20T12:49:59.203Z,26.96
2019-05-20T12:52:33.126Z,27.37
2019-05-20T12:55:09.482Z,27.79
2019-05-20T12:57:41.770Z,28.05
2019-05-20T13:00:16.085Z,28.15
2019-05-20T13:02:48.221Z,27.99
2019-05-20T13:05:20.584Z,27.91
2019-05-20T13:07:54.931Z,27.46
2019-05-20T13:10:31.766Z,27.93
2019-05-20T13:13:02.821Z,28.05
2019-05-20T13:15:36.773Z,28.40
2019-05-20T13:18:08.825Z,28.38
2019-05-20T13:20:40.623Z,28.46
2019-05-20T13:23:14.633Z,28.51
2019-05-20T13:25:47.680Z,28.78
2019-05-20T13:28:21.486Z,29.19
2019-05-20T13:30:55.060Z,29.62
2019-05-20T13:33:27.394Z,29.41
2019-05-20T13:35:59.271Z,29.89
2019-05-20T13:38:32.266Z,29.61
2019-05-20T13:41:05.051Z,29.45
2019-05-20T13:43:38.260Z,28.72
2019-05-20T13:46:09.890Z,28.40
2019-05-20T13:48:44.687Z,28.03
2019-05-20T13:51:18.349Z,27.94
2019-05-20T13:53:50.948Z,27.78
2019-05-20T13:56:24.469Z,27.55
2019-05-20T13:58:58.124Z,27.46
2019-05-20T14:01:30.026Z,26.76
2019-05-20T14:04:02.040Z,26.81
2019-05-20T14:06:34.819Z,26.32
2019-05-20T14:09:08.612Z,26.30
2019-05-20T14:11:41.981Z,25.45
2019-05-20T14:14:17.997Z,25.44
2019-05-20T14:16:51.756Z,25.56
2019-05-20T14:19:23.407Z,25.45
2019-05-20T14:21:56.199Z,25.28
2019-05-20T14:24:30.280Z,25.52
2019-05-20T14:27:02.073Z,25.45
2019-05-20T14:29:35.307Z,25.43
2019-05-20T14:32:08.534Z,25.48
2019-05-20T14:34:41.397Z,25.68
2019-05-20T14:37:15.752Z,25.71
2019-05-20T14:39:48.662Z,25.82
2019-05-20T14:42:21.043Z,25.92
2019-05-20T14:44:56.358Z,25.71
2019-05-20T14:47:28.383Z,25.87
2019-05-20T14:50:00.029Z,26.16
2019-05-20T14:52:32.331Z,26.21
2019-05-20T14:55:04.843Z,26.26
2019-05-20T14:57:36.775Z,26.14
2019-05-20T15:00:10.591Z,25.95
2019-05-20T15:02:44.054Z,26.05
2019-05-20T15:05:17.389Z,26.00
2019-05-20T15:07:49.631Z,25.79
2019-05-20T15:10:22.611Z,25.71
2019-05-20T15:12:56.755Z,25.75
2019-05-20T15:15:30.839Z,25.27
2019-05-20T15:18:02.558Z,24.94
2019-05-20T15:20:36.492Z,24.69
2019-05-20T15:23:08.080Z,24.79
2019-05-20T15:25:40.582Z,24.80
2019-05-20T15:28:12.855Z,24.79
2019-05-20T15:30:45.962Z,24.62
2019-05-20T15:33:17.742Z,24.56
2019-05-20T15:35:49.987Z,24.51
2019-05-20T15:38:21.925Z,24.49
2019-05-20T15:40:57.547Z,24.17
2019-05-20T15:43:30.927Z,24.18
2019-05-20T15:46:02.729Z,24.20
2019-05-20T15:48:36.061Z,24.08
2019-05-20T15:51:07.801Z,24.44
2019-05-20T15:53:40.246Z,24.76
2019-05-20T15:56:11.808Z,24.89
2019-05-20T15:58:45.100Z,24.91
2019-05-20T16:01:17.372Z,25.01
2019-05-20T16:03:51.475Z,25.48
2019-05-20T16:06:25.061Z,25.65
2019-05-20T16:08:57.839Z,25.69
2019-05-20T16:11:29.844Z,25.92
2019-05-20T16:14:02.251Z,25.92
2019-05-20T16:16:34.306Z,25.83
2019-05-20T16:19:07.733Z,25.83
2019-05-20T16:21:41.463Z,25.72
2019-05-20T16:24:13.244Z,25.64
2019-05-20T16:26:46.604Z,25.66
2019-05-20T16:29:20.501Z,25.60
2019-05-20T16:31:54.644Z,25.59
2019-05-20T16:34:28.348Z,25.59
2019-05-20T16:37:00.869Z,25.42
2019-05-20T16:39:34.649Z,25.39
2019-05-20T16:42:09.349Z,25.21
2019-05-20T16:44:44.461Z,25.07
2019-05-20T16:47:16.766Z,24.95
2019-05-20T16:49:51.355Z,25.04
2019-05-20T16:52:24.548Z,24.90
2019-05-20T16:54:56.430Z,24.51
2019-05-20T16:57:28.948Z,24.51
2019-05-20T17:00:01.046Z,24.30
2019-05-20T17:02:35.724Z,24.12
2019-05-20T17:05:09.429Z,24.01
2019-05-20T17:07:43.555Z,23.97
2019-05-20T17:10:19.448Z,23.64
2019-05-20T17:12:52.004Z,23.76
2019-05-20T17:15:24.154Z,23.86
2019-05-20T17:17:57.538Z,24.01
2019-05-20T17:20:30.524Z,24.30
2019-05-20T17:23:02.618Z,24.45
2019-05-20T17:25:36.958Z,24.72
2019-05-20T17:28:09.385Z,24.90
2019-05-20T17:30:45.243Z,24.94
2019-05-20T17:33:14.976Z,24.97
2019-05-20T17:35:47.085Z,24.95
2019-05-20T17:38:20.793Z,24.67
2019-05-20T17:40:53.503Z,24.77
2019-05-20T17:43:28.514Z,24.76
2019-05-20T17:46:02.763Z,24.52
2019-05-20T17:48:35.632Z,24.24
2019-05-20T17:51:09.000Z,24.10
2019-05-20T17:53:43.324Z,23.81
2019-05-20T17:56:15.507Z,23.70
2019-05-20T17:58:48.386Z,23.69
2019-05-20T18:01:20.442Z,23.47
2019-05-20T18:03:53.522Z,23.33
2019-05-20T18:06:25.787Z,22.98
2019-05-20T18:09:00.921Z,22.78
2019-05-20T18:11:34.515Z,22.62
2019-05-20T18:14:06.812Z,22.49
2019-05-20T18:16:39.250Z,22.22
2019-05-20T18:19:11.578Z,22.12
2019-05-20T18:21:44.743Z,21.99
2019-05-20T18:24:18.393Z,21.82
2019-05-20T18:26:51.618Z,21.77
2019-05-20T18:29:24.122Z,21.73
2019-05-20T18:31:56.497Z,21.72
2019-05-20T18:34:29.879Z,21.52
2019-05-20T18:37:02.187Z,21.45
2019-05-20T18:39:38.729Z,21.36
2019-05-20T18:42:12.424Z,21.09
2019-05-20T18:44:48.678Z,20.95
2019-05-20T18:47:23.757Z,20.75
2019-05-20T18:49:57.729Z,20.59
2019-05-20T18:52:30.703Z,20.42
2019-05-20T18:55:03.163Z,20.29
2019-05-20T18:57:37.580Z,20.14
2019-05-20T19:00:13.919Z,20.06
2019-05-20T19:02:47.054Z,20.01
2019-05-20T19:05:20.680Z,19.96
2019-05-20T19:07:53.950Z,19.87
2019-05-20T19:10:27.245Z,19.77
2019-05-20T19:13:01.042Z,19.66
2019-05-20T19:15:35.682Z,19.52
2019-05-20T19:18:11.030Z,19.39
2019-05-20T19:20:43.702Z,19.25
2019-05-20T19:23:17.827Z,19.18
2019-05-20T19:25:50.899Z,19.22
2019-05-20T19:28:25.424Z,19.20
2019-05-20T19:31:01.635Z,19.20
2019-05-20T19:33:34.322Z,19.20
2019-05-20T19:36:07.416Z,19.07
2019-05-20T19:38:40.964Z,19.00
2019-05-20T19:41:14.708Z,18.98
2019-05-20T19:43:47.640Z,18.86
2019-05-20T19:46:23.212Z,18.69
2019-05-20T19:48:55.211Z,18.65
2019-05-20T19:51:27.143Z,18.62
2019-05-20T19:53:59.694Z,18.51
2019-05-20T19:56:32.940Z,18.46
2019-05-20T19:59:06.054Z,18.35
2019-05-20T20:01:40.184Z,18.34
2019-05-20T20:04:14.247Z,18.24
2019-05-20T20:06:48.719Z,18.25
2019-05-20T20:09:22.022Z,18.26
2019-05-20T20:11:54.741Z,18.33
2019-05-20T20:14:27.216Z,18.40
2019-05-20T20:17:00.871Z,18.41
2019-05-20T20:19:32.692Z,18.43
2019-05-20T20:22:08.216Z,18.40
2019-05-20T20:24:44.410Z,18.41
2019-05-20T20:27:19.556Z,18.33
2019-05-20T20:29:51.304Z,18.19
2019-05-20T20:32:36.796Z,17.63
2019-05-20T20:34:57.724Z,17.34
2019-05-20T20:37:32.258Z,17.39
2019-05-20T20:40:06.734Z,17.57
2019-05-20T20:42:40.883Z,17.70
2019-05-20T20:45:13.265Z,17.72
2019-05-20T20:47:45.059Z,17.78
2019-05-20T20:50:20.508Z,17.84
2019-05-20T20:52:52.931Z,17.86
2019-05-20T20:55:27.553Z,17.74
2019-05-20T20:57:59.399Z,17.79
2019-05-20T21:00:31.192Z,17.94
2019-05-20T21:03:04.541Z,18.00
2019-05-20T21:05:36.775Z,17.98
2019-05-20T21:08:08.390Z,18.04
2019-05-20T21:10:40.886Z,18.11
2019-05-20T21:13:16.835Z,18.14
2019-05-20T21:15:49.448Z,18.21
2019-05-20T21:18:23.660Z,18.21
2019-05-20T21:20:56.021Z,18.20
2019-05-20T21:23:28.459Z,18.17
2019-05-20T21:26:03.135Z,18.13
2019-05-20T21:28:37.640Z,18.04
2019-05-20T21:31:12.304Z,17.98
2019-05-20T21:33:45.028Z,17.98
2019-05-20T21:36:17.323Z,17.90
2019-05-20T21:38:50.852Z,17.89
2019-05-20T21:41:27.878Z,17.75
2019-05-20T21:44:02.088Z,17.48
2019-05-20T21:46:36.880Z,17.48
2019-05-20T21:49:08.461Z,17.49
2019-05-20T21:51:43.487Z,17.63
2019-05-20T21:54:15.576Z,17.60
2019-05-20T21:56:50.327Z,17.61
2019-05-20T21:59:24.634Z,17.51
2019-05-20T22:01:58.565Z,17.04
2019-05-20T22:04:31.093Z,17.10
2019-05-20T22:07:03.949Z,16.85
2019-05-20T22:09:39.269Z,16.80
2019-05-20T22:12:13.327Z,16.66
2019-05-20T22:14:46.096Z,16.79
2019-05-20T22:17:21.120Z,16.90
2019-05-20T22:19:52.867Z,16.82
2019-05-20T22:22:32.707Z,16.62
2019-05-20T22:25:09.856Z,16.61
2019-05-20T22:27:41.821Z,16.64
2019-05-20T22:30:15.219Z,16.61
2019-05-20T22:32:48.235Z,16.65
2019-05-20T22:35:21.000Z,16.61
2019-05-20T22:37:54.250Z,16.55
2019-05-20T22:40:28.616Z,16.61
2019-05-20T22:43:01.021Z,16.26
2019-05-20T22:45:33.334Z,16.17
2019-05-20T22:48:06.396Z,16.09
2019-05-20T22:50:40.420Z,16.11
2019-05-20T22:53:14.611Z,16.07
2019-05-20T22:55:47.321Z,15.92
2019-05-20T22:58:21.919Z,15.91
2019-05-20T23:00:57.572Z,15.90
2019-05-20T23:03:30.898Z,15.83
2019-05-20T23:06:05.859Z,15.80
2019-05-20T23:08:39.885Z,15.73
2019-05-20T23:11:13.692Z,15.75
2019-05-20T23:13:46.514Z,15.81
2019-05-20T23:16:19.991Z,15.78
2019-05-20T23:18:52.996Z,15.66
2019-05-20T23:21:25.867Z,15.57
2019-05-20T23:23:58.948Z,15.59
2019-05-20T23:26:31.083Z,15.61
2019-05-20T23:29:04.308Z,15.63
2019-05-20T23:31:36.754Z,15.67
2019-05-20T23:34:12.766Z,15.76
2019-05-20T23:36:44.220Z,15.81
2019-05-20T23:39:16.658Z,15.82
2019-05-20T23:41:48.924Z,15.87
2019-05-20T23:44:23.004Z,15.87
2019-05-20T23:46:56.079Z,15.89
2019-05-20T23:49:29.871Z,15.86
2019-05-20T23:52:02.953Z,15.87
2019-05-20T23:54:36.694Z,15.88
2019-05-20T23:57:08.972Z,15.85
2019-05-20T23:59:42.849Z,15.81
